Lusaka, Zambia
Current Conditions -  °F | °C
As of 11:00 PM on Monday 22 Dec 2014 (Local Time) from FLKK Reporting Station
Clear Clear  
Wind Chill: 68°   Ceiling: Unl
Heat Index: 68°   Visibility: 6mi
Dew Point: 64°   Wind: 2mph
Humidity: 88%   Direction: 100°E
Pressure: 30.06"   Gusts: NA
Location:  15.42°S, 28.29°E
Report Text: FLKK 222100Z 10002KT CAVOK 20/18 Q1018
Loading
Personal Weather Stations






























Interactive Weather Map New forecast layout! Learn more

10-Day Weather Forecast

Advertisements
Track Severe Weather on mobile